Flight Track Log - Related Links

Times and Time Zones

All times are in EDT time to prevent confusion due to time zone crossing. See the UAL4679 flight status page for this flight to view local times or setup timezone preferences in your user account.

Time Position Orientation Groundspeed Altitude Reporting Facility
EDT Latitude Longitude Course Direction KTS MPH feet Rate Location/Type
Fri 11:28:10 AM 40.6667 -74.1833 180° South 143 165 1,700  Level New York TRACON
Fri 11:29:10 AM 40.6167 -74.2000 194° South 199 229 3,100 1,850 Climbing New York TRACON
Fri 11:30:10 AM 40.5667 -74.2500 217° Southwest 235 270 5,400 841 Climbing New York TRACON
Fri 11:32:00 AM 40.2082 -74.1806 194° South  Level FlightAware Approximate
Fri 11:32:37 AM 40.4258 -74.2172 170° South 230 265 6,000  Level New York Center
Fri 11:33:00 AM 40.1089 -74.2167 180° South  Level FlightAware Approximate
Fri 11:33:37 AM 40.3683 -74.1897 160° South 230 265 6,200  Level New York Center
Fri 11:34:38 AM 40.3067 -74.1622 161° South 230 265 8,900 2,319 Climbing New York Center
Fri 11:35:36 AM 40.2436 -74.1836 195° South 226 260 10,800 1,539 Climbing New York Center
Fri 11:37:10 AM 40.1325 -74.2131 191° South 260 299 12,800 1,539 Climbing Washington Center
Fri 11:38:08 AM 40.0517 -74.2389 194° South 284 327 14,700 1,729 Climbing Washington Center
Fri 11:39:08 AM 39.9731 -74.2839 204° Southwest 301 346 16,200 1,388 Climbing Washington Center
Fri 11:40:09 AM 39.9008 -74.3528 216° Southwest 314 361 17,500 1,230 Climbing Washington Center
Fri 11:41:10 AM 39.8267 -74.4217 216° Southwest 331 381 18,700 1,361 Climbing Washington Center
Fri 11:42:08 AM 39.7628 -74.5036 225° Southwest 336 387 20,200 1,613 Climbing Washington Center
Fri 11:43:09 AM 39.6969 -74.5911 226° Southwest 336 387 21,900 1,623 Climbing Washington Center
Fri 11:44:10 AM 39.6350 -74.6728 225° Southwest 336 387 23,500 1,513 Climbing Washington Center
Fri 11:45:08 AM 39.5647 -74.7489 220° Southwest 330 380 24,900 1,424 Climbing Washington Center
Fri 11:46:08 AM 39.4839 -74.8172 213° Southwest 330 380 26,300 1,388 Climbing Washington Center
Fri 11:47:09 AM 39.4114 -74.8797 214° Southwest 325 374 27,700 1,377 Climbing Washington Center
Fri 11:48:10 AM 39.3344 -74.9394 211° Southwest 325 374 29,100 1,462 Climbing Washington Center
Fri 11:49:08 AM 39.2619 -74.9964 211° Southwest 325 374 30,600 1,563 Climbing Washington Center
Fri 11:50:09 AM 39.1892 -75.0533 211° Southwest 325 374 32,200 1,438 Climbing Washington Center
Fri 11:51:09 AM 39.1250 -75.1128 216° Southwest 315 362 33,500 1,109 Climbing Washington Center
Fri 11:52:08 AM 39.0564 -75.1667 211° Southwest 304 350 34,400 700 Climbing Washington Center
Fri 11:53:09 AM 38.9856 -75.2231 212° Southwest 298 343 34,900 492 Climbing Washington Center
Fri 11:54:10 AM 38.9128 -75.2769 210° Southwest 298 343 35,400 496 Climbing Washington Center
Fri 11:55:10 AM 38.8381 -75.3411 214° Southwest 304 350 35,900 305 Climbing Washington Center
Fri 11:56:08 AM 38.7589 -75.4053 212° Southwest 323 372 36,000 50 Climbing Washington Center
Fri 11:57:09 AM 38.6778 -75.4719 213° Southwest 338 389 36,000  Level Washington Center
Fri 11:58:09 AM 38.5881 -75.5358 209° Southwest 356 410 36,000  Level Washington Center
Fri 11:59:08 AM 38.5006 -75.6075 213° Southwest 374 430 36,000  Level Washington Center
Fri 12:00:09 PM 38.4108 -75.6792 212° Southwest 379 436 36,000  Level Washington Center
Fri 12:01:10 PM 38.3169 -75.7506 211° Southwest 384 442 36,000  Level Washington Center
Fri 12:02:10 PM 38.2250 -75.8217 211° Southwest 384 442 36,000  Level Washington Center
Fri 12:03:08 PM 38.1353 -75.8928 212° Southwest 384 442 36,000  Level Washington Center
Fri 12:04:09 PM 38.0453 -75.9583 210° Southwest 384 442 36,000  Level Washington Center
Fri 12:05:10 PM 37.9575 -76.0289 212° Southwest 384 442 36,000  Level Washington Center
Fri 12:06:10 PM 37.8675 -76.0969 211° Southwest 384 442 36,000  Level Washington Center
Fri 12:07:10 PM 37.7903 -76.1594 213° Southwest 384 442 36,000  Level Washington Center
Fri 12:08:08 PM 37.7022 -76.2244 210° Southwest 379 436 36,000  Level Washington Center
Fri 12:09:09 PM 37.6164 -76.2917 212° Southwest 379 436 36,000  Level Washington Center
Fri 12:10:10 PM 37.5264 -76.3592 211° Southwest 379 436 36,000  Level Washington Center
Fri 12:11:11 PM 37.4403 -76.4261 212° Southwest 379 436 36,000  Level Washington Center
Fri 12:12:08 PM 37.3522 -76.4933 211° Southwest 379 436 36,000  Level Washington Center
Fri 12:13:09 PM 37.2642 -76.5575 210° Southwest 379 436 36,000  Level Washington Center
Fri 12:14:10 PM 37.1697 -76.6292 211° Southwest 374 430 36,000  Level Washington Center
Fri 12:15:10 PM 37.0836 -76.6958 212° Southwest 369 425 36,000  Level Washington Center
Fri 12:16:10 PM 36.9975 -76.7622 212° Southwest 369 425 36,000  Level Washington Center
Fri 12:17:08 PM 36.9153 -76.8311 214° Southwest 369 425 36,000  Level Washington Center
Fri 12:18:09 PM 36.8353 -76.9075 217° Southwest 369 425 36,000  Level Washington Center
Fri 12:19:09 PM 36.7531 -76.9867 218° Southwest 369 425 36,000  Level Washington Center
Fri 12:20:10 PM 36.6728 -77.0603 216° Southwest 369 425 36,000  Level Washington Center
Fri 12:21:09 PM 36.5906 -77.1389 218° Southwest 369 425 36,000  Level Washington Center
Fri 12:22:09 PM 36.5103 -77.2122 216° Southwest 374 430 36,000  Level Washington Center
Fri 12:23:09 PM 36.4342 -77.2803 216° Southwest 374 430 36,000  Level Washington Center
Fri 12:24:08 PM 36.3539 -77.3561 217° Southwest 374 430 36,000  Level Washington Center
Fri 12:25:09 PM 36.2756 -77.4317 218° Southwest 374 430 36,000  Level Washington Center
Fri 12:26:10 PM 36.1972 -77.5044 217° Southwest 369 425 36,000  Level Washington Center
Fri 12:27:08 PM 36.1147 -77.5769 215° Southwest 369 425 36,000  Level Washington Center
Fri 12:28:08 PM 36.0383 -77.6522 219° Southwest 369 425 36,000  Level Washington Center
Fri 12:29:10 PM 35.9556 -77.7244 215° Southwest 369 425 36,000  Level Washington Center
Fri 12:30:10 PM 35.8731 -77.7889 212° Southwest 364 419 36,000  Level Washington Center
Fri 12:31:08 PM 35.7819 -77.8581 212° Southwest 364 419 36,000  Level Washington Center
Fri 12:32:08 PM 35.6972 -77.9272 214° Southwest 364 419 36,000  Level Washington Center
Fri 12:33:08 PM 35.6147 -77.9886 211° Southwest 359 413 36,000  Level Washington Center
Fri 12:34:09 PM 35.5297 -78.0550 212° Southwest 359 413 36,000  Level Washington Center
Fri 12:35:10 PM 35.4472 -78.1186 212° Southwest 354 407 36,000  Level Washington Center
Fri 12:36:10 PM 35.3622 -78.1847 212° Southwest 354 407 36,000  Level Washington Center
Fri 12:37:09 PM 35.2794 -78.2458 211° Southwest 354 407 36,000  Level Washington Center
Fri 12:38:10 PM 35.1947 -78.3117 212° Southwest 354 407 36,000  Level Washington Center
Fri 12:39:11 PM 35.1139 -78.3775 214° Southwest 354 407 36,000  Level Washington Center
Fri 12:40:08 PM 35.0308 -78.4406 212° Southwest 354 407 36,000  Level Washington Center
Fri 12:41:46 PM 34.8942 -78.5444 212° Southwest 354 407 36,000  Level Jacksonville Center
Fri 12:42:46 PM 34.8089 -78.6094 212° Southwest 354 407 36,000  Level Jacksonville Center
Fri 12:43:46 PM 34.7275 -78.6717 212° Southwest 354 407 36,000  Level Jacksonville Center
Fri 12:44:46 PM 34.6442 -78.7364 213° Southwest 354 407 36,000  Level Jacksonville Center
Fri 12:45:46 PM 34.5608 -78.8008 212° Southwest 359 413 36,000  Level Jacksonville Center
Fri 12:46:46 PM 34.4856 -78.8647 215° Southwest 359 413 36,000  Level Jacksonville Center
Fri 12:47:46 PM 34.4000 -78.9292 212° Southwest 359 413 36,000  Level Jacksonville Center
Fri 12:48:46 PM 34.3144 -78.9908 211° Southwest 359 413 36,000  Level Jacksonville Center
Fri 12:49:46 PM 34.2328 -79.0522 212° Southwest 359 413 36,000  Level Jacksonville Center
Fri 12:50:46 PM 34.1492 -79.1164 212° Southwest 359 413 36,000  Level Jacksonville Center
Fri 12:51:46 PM 34.0633 -79.1803 212° Southwest 359 413 36,000  Level Jacksonville Center
Fri 12:52:46 PM 33.9797 -79.2414 211° Southwest 359 413 36,000  Level Jacksonville Center
Fri 12:53:46 PM 33.8939 -79.3050 212° Southwest 359 413 36,000  Level Jacksonville Center
Fri 12:54:46 PM 33.8100 -79.3658 211° Southwest 359 413 36,000  Level Jacksonville Center
Fri 12:55:46 PM 33.7242 -79.4267 211° Southwest 359 413 36,000  Level Jacksonville Center
Fri 12:56:46 PM 33.6486 -79.4869 214° Southwest 348 400 36,000  Level Jacksonville Center
Fri 12:57:46 PM 33.5625 -79.5478 210° Southwest 348 400 36,000  Level Jacksonville Center
Fri 12:58:46 PM 33.4767 -79.6131 212° Southwest 355 409 36,000  Level Jacksonville Center
Fri 12:59:46 PM 33.3906 -79.6761 211° Southwest 355 409 36,000  Level Jacksonville Center
Fri 01:00:46 PM 33.3067 -79.7361 211° Southwest 355 409 36,000  Level Jacksonville Center
Fri 01:01:46 PM 33.2225 -79.7989 212° Southwest 355 409 36,000  Level Jacksonville Center
Fri 01:02:46 PM 33.1383 -79.8611 212° Southwest 355 409 36,000 -450 Level Jacksonville Center
Fri 01:03:46 PM 33.0522 -79.9186 209° Southwest 355 409 35,100 -1,000 Descending Jacksonville Center
Fri 01:04:46 PM 32.9681 -79.9808 212° Southwest 355 409 34,000 -1,050 Descending Jacksonville Center
Fri 01:05:46 PM 32.8800 -80.0506 214° Southwest 355 409 33,000 -1,000 Descending Jacksonville Center
Fri 01:06:46 PM 32.8108 -80.1367 226° Southwest 360 414 32,000 -1,050 Descending Jacksonville Center
Fri 01:07:46 PM 32.7397 -80.2228 226° Southwest 360 414 30,900 -1,000 Descending Jacksonville Center
Fri 01:08:46 PM 32.6703 -80.3089 226° Southwest 365 420 30,000 -450 Descending Jacksonville Center
Fri 01:09:46 PM 32.6011 -80.3922 225° Southwest 365 420 30,000  Level Jacksonville Center
Fri 01:10:46 PM 32.5189 -80.4583 214° Southwest 358 412 30,000  Level Jacksonville Center
Fri 01:11:46 PM 32.4281 -80.5100 206° Southwest 358 412 30,000  Level Jacksonville Center
Fri 01:12:46 PM 32.3350 -80.5617 205° Southwest 362 417 30,000  Level Jacksonville Center
Fri 01:13:46 PM 32.2442 -80.6106 204° Southwest 361 415 30,000 -450 Level Jacksonville Center
Fri 01:14:46 PM 32.1531 -80.6619 206° Southwest 361 415 29,100 -1,100 Descending Jacksonville Center
Fri 01:15:46 PM 32.0706 -80.7081 205° Southwest 368 423 27,800 -1,500 Descending Jacksonville Center
Fri 01:16:46 PM 31.9669 -80.7644 205° Southwest 373 429 26,100 -1,550 Descending Jacksonville Center
Fri 01:17:46 PM 31.8697 -80.8156 204° Southwest 379 436 24,700 -1,050 Descending Jacksonville Center
Fri 01:18:46 PM 31.7744 -80.8692 206° Southwest 379 436 24,000 -350 Descending Jacksonville Center
Fri 01:19:46 PM 31.6897 -80.9125 204° Southwest 379 436 24,000  Level Jacksonville Center
Fri 01:20:46 PM 31.5964 -80.9633 205° Southwest 379 436 24,000 -1,000 Level Jacksonville Center
Fri 01:21:46 PM 31.4972 -81.0189 206° Southwest 369 425 22,000 -1,950 Descending Jacksonville Center
Fri 01:22:46 PM 31.4061 -81.0719 206° Southwest 369 425 20,100 -1,950 Descending Jacksonville Center
Fri 01:23:46 PM 31.3147 -81.1175 203° Southwest 364 419 18,100 -1,950 Descending Jacksonville Center
Fri 01:24:46 PM 31.2256 -81.1628 203° Southwest 356 410 16,200 -1,800 Descending Jacksonville Center
Fri 01:25:46 PM 31.1386 -81.2131 206° Southwest 351 404 14,500 -1,732 Descending Jacksonville Center
Fri 01:26:23 PM 31.0825 -81.2406 203° Southwest 346 398 13,400 -1,800 Descending Jacksonville Center
Fri 01:26:46 PM 31.0517 -81.2606 209° Southwest 346 398 12,700 -1,714 Descending Jacksonville Center
Fri 01:27:12 PM 31.0142 -81.2781 202° Southwest 340 391 12,000 -1,400 Descending Jacksonville Center
Fri 01:27:46 PM 30.9664 -81.2936 196° South 340 391 11,300 -1,404 Descending Jacksonville Center
Fri 01:28:46 PM 30.8894 -81.3167 194° South 311 358 9,800 -1,636 Descending Jacksonville Center
Fri 01:29:14 PM 30.8542 -81.3292 197° South 279 321 8,900 -1,700 Descending Jacksonville Center
Fri 01:29:46 PM 30.8211 -81.3564 215° Southwest 287 330 8,100 -1,475 Descending Jacksonville Center
Fri 01:30:15 PM 30.7919 -81.3811 216° Southwest 280 322 7,400 -1,600 Descending Jacksonville Center
Fri 01:30:46 PM 30.7569 -81.4083 214° Southwest 275 316 6,500 -1,672 Descending Jacksonville Center
Fri 01:31:16 PM 30.7281 -81.4353 219° Southwest 277 319 5,700 -1,700 Descending Jacksonville Center
Fri 01:31:46 PM 30.6969 -81.4600 214° Southwest 275 316 4,800 -1,745 Descending Jacksonville Center
Fri 01:32:11 PM 30.6700 -81.4797 212° Southwest 269 310 4,100 -1,700 Descending Jacksonville Center
Fri 01:32:46 PM 30.6347 -81.5117 218° Southwest 280 322 3,100 -1,082 Descending Jacksonville Center
Fri 01:33:12 PM 30.6119 -81.5264 209° Southwest 256 295 3,000 -600 Descending Jacksonville Center
Fri 01:33:46 PM 30.5831 -81.5533 219° Southwest 266 306 2,500 -968 Descending Jacksonville Center
Fri 01:34:14 PM 30.5603 -81.5731 217° Southwest 210 242 2,000 -800 Descending Jacksonville Center
Fri 01:34:46 PM 30.5375 -81.5903 213° Southwest 233 268 1,700 -689 Descending Jacksonville Center
Fri 01:35:15 PM 30.5253 -81.6047 226° Southwest 122 140 1,300 -900 Descending Jacksonville Center
Fri 01:35:46 PM 30.5169 -81.6242 244° Southwest 161 185 800 -806 Descending Jacksonville Center
Fri 01:36:22 PM 30.5131 -81.6483 259° West 128 147 400 -667 Descending Jacksonville Center

Login

Don't have an account? Register now (free) for customized features, flight alerts, and more!